createdAt,value
2018-03-14T00:00:45.674Z,47.10
2018-03-14T00:01:45.666Z,42.80
2018-03-14T00:02:45.658Z,45.90
2018-03-14T00:03:45.652Z,45.30
2018-03-14T00:04:45.643Z,45.50
2018-03-14T00:05:45.637Z,49.00
2018-03-14T00:06:45.628Z,45.50
2018-03-14T00:07:45.620Z,42.40
2018-03-14T00:08:45.610Z,44.30
2018-03-14T00:09:45.601Z,46.00
2018-03-14T00:10:45.595Z,45.70
2018-03-14T00:11:45.583Z,43.20
2018-03-14T00:12:45.574Z,39.90
2018-03-14T00:13:45.566Z,43.10
2018-03-14T00:14:45.558Z,44.20
2018-03-14T00:15:45.549Z,42.70
2018-03-14T00:16:45.541Z,46.30
2018-03-14T00:17:45.532Z,47.90
2018-03-14T00:18:45.525Z,49.30
2018-03-14T00:19:45.519Z,48.00
2018-03-14T00:20:45.511Z,50.80
2018-03-14T00:21:45.502Z,45.40
2018-03-14T00:22:45.495Z,46.30
2018-03-14T00:23:45.486Z,45.90
2018-03-14T00:24:45.478Z,44.00
2018-03-14T00:25:45.470Z,47.60
2018-03-14T00:26:45.460Z,48.70
2018-03-14T00:27:45.450Z,46.60
2018-03-14T00:28:45.441Z,48.40
2018-03-14T00:29:45.434Z,46.70
2018-03-14T00:30:45.426Z,45.60
2018-03-14T00:31:45.416Z,50.10
2018-03-14T00:32:45.408Z,45.60
2018-03-14T00:33:45.400Z,43.50
2018-03-14T00:34:45.392Z,44.30
2018-03-14T00:35:45.386Z,44.60
2018-03-14T00:36:45.378Z,41.60
2018-03-14T00:37:45.369Z,44.40
2018-03-14T00:38:45.361Z,43.60
2018-03-14T00:39:45.353Z,40.50
2018-03-14T00:40:45.344Z,41.30
2018-03-14T00:41:45.336Z,39.60
2018-03-14T00:42:45.329Z,38.30
2018-03-14T00:43:45.318Z,41.50
2018-03-14T00:44:45.308Z,35.80
2018-03-14T00:45:45.300Z,40.00
2018-03-14T00:46:45.292Z,35.30
2018-03-14T00:47:45.288Z,41.10
2018-03-14T00:48:45.277Z,37.10
2018-03-14T00:49:45.269Z,37.70
2018-03-14T00:50:45.262Z,40.00
2018-03-14T00:51:45.251Z,42.70
2018-03-14T00:52:45.242Z,37.90
2018-03-14T00:53:45.234Z,38.00
2018-03-14T00:54:45.226Z,36.50
2018-03-14T00:55:45.218Z,41.20
2018-03-14T00:56:45.208Z,41.90
2018-03-14T00:57:45.200Z,38.60
2018-03-14T00:58:45.193Z,39.10
2018-03-14T00:59:45.186Z,42.80
2018-03-14T01:00:45.183Z,35.40
2018-03-14T01:01:45.170Z,41.70
2018-03-14T01:02:45.164Z,38.50
2018-03-14T01:03:45.155Z,34.80
2018-03-14T01:04:45.144Z,35.90
2018-03-14T01:05:45.136Z,35.20
2018-03-14T01:06:45.129Z,38.50
2018-03-14T01:07:45.119Z,38.40
2018-03-14T01:08:45.109Z,35.90
2018-03-14T01:09:45.100Z,38.20
2018-03-14T01:10:45.094Z,35.90
2018-03-14T01:11:45.085Z,37.70
2018-03-14T01:12:45.076Z,37.20
2018-03-14T01:13:45.067Z,38.10
2018-03-14T01:14:45.060Z,34.80
2018-03-14T01:15:45.054Z,38.70
2018-03-14T01:16:45.043Z,35.50
2018-03-14T01:17:45.041Z,35.30
2018-03-14T01:18:45.029Z,38.10
2018-03-14T01:19:45.020Z,35.10
2018-03-14T01:20:45.011Z,33.80
2018-03-14T01:21:45.003Z,37.60
2018-03-14T01:22:44.994Z,38.30
2018-03-14T01:23:44.984Z,40.90
2018-03-14T01:24:44.975Z,40.00
2018-03-14T01:25:44.967Z,42.50
2018-03-14T01:26:44.959Z,38.60
2018-03-14T01:27:44.950Z,39.80
2018-03-14T01:28:44.943Z,39.70
2018-03-14T01:29:44.932Z,42.50
2018-03-14T01:30:44.926Z,38.50
2018-03-14T01:31:44.921Z,41.00
2018-03-14T01:32:44.911Z,35.40
2018-03-14T01:33:44.904Z,39.00
2018-03-14T01:34:44.895Z,42.10
2018-03-14T01:35:44.887Z,37.10
2018-03-14T01:36:44.877Z,39.80
2018-03-14T01:37:44.870Z,39.00
2018-03-14T01:38:44.863Z,39.90
2018-03-14T01:39:44.851Z,36.30
2018-03-14T01:40:44.841Z,41.20
2018-03-14T01:41:44.834Z,40.50
2018-03-14T01:42:44.825Z,41.10
2018-03-14T01:43:44.818Z,37.10
2018-03-14T01:44:44.808Z,43.40
2018-03-14T01:45:44.799Z,44.90
2018-03-14T01:46:44.792Z,45.30
2018-03-14T01:47:44.786Z,49.30
2018-03-14T01:48:44.779Z,43.10
2018-03-14T01:49:44.770Z,46.60
2018-03-14T01:50:44.762Z,44.90
2018-03-14T01:51:44.750Z,45.20
2018-03-14T01:52:44.741Z,48.20
2018-03-14T01:53:44.733Z,45.70
2018-03-14T01:54:44.724Z,49.40
2018-03-14T01:55:44.719Z,51.50
2018-03-14T01:56:44.711Z,46.10
2018-03-14T01:57:44.707Z,44.80
2018-03-14T01:58:44.694Z,45.10
2018-03-14T01:59:44.690Z,52.50
2018-03-14T02:00:44.680Z,44.80
2018-03-14T02:01:44.685Z,47.90
2018-03-14T02:02:44.660Z,42.80
2018-03-14T02:03:44.650Z,43.80
2018-03-14T02:04:44.641Z,44.80
2018-03-14T02:05:44.633Z,46.00
2018-03-14T02:06:44.627Z,42.30
2018-03-14T02:07:44.626Z,44.00
2018-03-14T02:08:44.608Z,47.00
2018-03-14T02:09:44.600Z,45.20
2018-03-14T02:10:44.592Z,40.10
2018-03-14T02:11:44.586Z,47.50
2018-03-14T02:12:44.577Z,50.10
2018-03-14T02:13:44.571Z,44.80
2018-03-14T02:14:44.562Z,42.50
2018-03-14T02:15:44.554Z,45.60
2018-03-14T02:16:44.548Z,46.80
2018-03-14T02:17:44.541Z,54.40
2018-03-14T02:18:44.526Z,48.50
2018-03-14T02:19:44.518Z,46.80
2018-03-14T02:20:44.509Z,44.30
2018-03-14T02:21:44.501Z,48.10
2018-03-14T02:22:44.493Z,58.00
2018-03-14T02:23:44.483Z,50.20
2018-03-14T02:24:44.476Z,51.90
2018-03-14T02:25:44.468Z,52.50
2018-03-14T02:26:44.459Z,52.30
2018-03-14T02:27:44.455Z,54.50
2018-03-14T02:28:44.445Z,50.50
2018-03-14T02:29:44.438Z,46.30
2018-03-14T02:30:44.429Z,47.70
2018-03-14T02:31:44.421Z,52.10
2018-03-14T02:32:44.413Z,53.30
2018-03-14T02:33:44.404Z,47.00
2018-03-14T02:34:44.397Z,52.90
2018-03-14T02:35:44.386Z,49.70
2018-03-14T02:36:44.377Z,49.60
2018-03-14T02:37:44.369Z,54.50
2018-03-14T02:38:44.361Z,53.50
2018-03-14T02:39:44.354Z,51.80
2018-03-14T02:40:44.343Z,49.50
2018-03-14T02:41:44.336Z,47.10
2018-03-14T02:42:44.331Z,55.00
2018-03-14T02:43:44.322Z,54.40
2018-03-14T02:44:44.315Z,50.30
2018-03-14T02:45:44.307Z,53.50
2018-03-14T02:46:44.298Z,51.00
2018-03-14T02:47:44.290Z,48.80
2018-03-14T02:48:44.281Z,63.40
2018-03-14T02:49:44.273Z,48.80
2018-03-14T02:50:44.265Z,52.90
2018-03-14T02:51:44.254Z,54.50
2018-03-14T02:52:44.247Z,49.90
2018-03-14T02:53:44.238Z,56.90
2018-03-14T02:54:44.230Z,54.30
2018-03-14T02:55:44.225Z,58.70
2018-03-14T02:56:44.215Z,57.40
2018-03-14T02:57:44.207Z,51.60
2018-03-14T02:58:44.200Z,51.80
2018-03-14T02:59:44.189Z,57.90
2018-03-14T03:00:44.179Z,52.10
2018-03-14T03:01:44.173Z,57.60
2018-03-14T03:02:44.163Z,52.80
2018-03-14T03:03:44.160Z,55.00
2018-03-14T03:04:44.148Z,55.70
2018-03-14T03:05:44.139Z,49.60
2018-03-14T03:06:44.130Z,51.70
2018-03-14T03:07:44.127Z,57.30
2018-03-14T03:08:44.116Z,49.30
2018-03-14T03:09:44.109Z,49.30
2018-03-14T03:10:44.101Z,52.50
2018-03-14T03:11:44.093Z,51.30
2018-03-14T03:12:44.111Z,51.50
2018-03-14T03:13:44.076Z,54.80
2018-03-14T03:14:44.067Z,52.00
2018-03-14T03:15:44.057Z,56.50
2018-03-14T03:16:44.048Z,57.00
2018-03-14T03:17:44.041Z,54.00
2018-03-14T03:18:44.032Z,52.60
2018-03-14T03:19:44.026Z,49.90
2018-03-14T03:20:44.016Z,51.20
2018-03-14T03:21:44.007Z,48.10
2018-03-14T03:22:43.999Z,53.20
2018-03-14T03:23:43.995Z,51.70
2018-03-14T03:24:43.986Z,53.90
2018-03-14T03:25:43.977Z,52.00
2018-03-14T03:26:43.972Z,61.40
2018-03-14T03:27:43.962Z,58.60
2018-03-14T03:28:43.953Z,57.10
2018-03-14T03:29:43.945Z,55.50
2018-03-14T03:30:43.939Z,57.80
2018-03-14T03:31:43.928Z,53.80
2018-03-14T03:32:43.917Z,56.00
2018-03-14T03:33:43.910Z,55.10
2018-03-14T03:34:43.900Z,56.20
2018-03-14T03:35:43.894Z,54.00
2018-03-14T03:36:43.884Z,54.90
2018-03-14T03:37:43.876Z,59.80
2018-03-14T03:38:43.869Z,59.40
2018-03-14T03:39:43.863Z,58.90
2018-03-14T03:40:43.854Z,58.70
2018-03-14T03:41:43.847Z,52.90
2018-03-14T03:42:43.839Z,53.20
2018-03-14T03:43:43.831Z,56.40
2018-03-14T03:44:43.822Z,60.70
2018-03-14T03:45:43.815Z,64.80
2018-03-14T03:46:43.806Z,59.20
2018-03-14T03:47:43.796Z,62.20
2018-03-14T03:48:43.786Z,54.40
2018-03-14T03:49:43.779Z,56.30
2018-03-14T03:50:43.771Z,59.80
2018-03-14T03:51:43.764Z,62.80
2018-03-14T03:52:43.754Z,60.00
2018-03-14T03:53:43.747Z,56.50
2018-03-14T03:54:43.739Z,58.20
2018-03-14T03:55:43.734Z,59.60
2018-03-14T03:56:43.724Z,65.30
2018-03-14T03:57:43.716Z,63.10
2018-03-14T03:58:43.708Z,65.80
2018-03-14T03:59:43.701Z,57.70
2018-03-14T04:00:43.692Z,56.80
2018-03-14T04:01:43.683Z,60.30
2018-03-14T04:02:43.677Z,56.30
2018-03-14T04:03:43.666Z,53.30
2018-03-14T04:04:43.657Z,57.70
2018-03-14T04:05:43.649Z,59.80
2018-03-14T04:06:43.644Z,55.60
2018-03-14T04:07:43.633Z,61.90
2018-03-14T04:08:43.624Z,66.70
2018-03-14T04:09:43.616Z,64.70
2018-03-14T04:10:43.609Z,66.70
2018-03-14T04:11:43.602Z,61.30
2018-03-14T04:12:43.593Z,69.50
2018-03-14T04:13:43.586Z,62.60
2018-03-14T04:14:43.580Z,70.10
2018-03-14T04:15:43.571Z,61.50
2018-03-14T04:16:43.562Z,62.10
2018-03-14T04:17:43.556Z,60.40
2018-03-14T04:18:43.549Z,60.70
2018-03-14T04:19:43.535Z,60.80
2018-03-14T04:20:43.526Z,72.60
2018-03-14T04:21:43.518Z,62.00
2018-03-14T04:22:43.511Z,63.50
2018-03-14T04:23:43.504Z,62.00
2018-03-14T04:24:43.494Z,57.40
2018-03-14T04:25:43.485Z,68.40
2018-03-14T04:26:43.477Z,73.60
2018-03-14T04:27:43.472Z,62.90
2018-03-14T04:28:43.464Z,63.80
2018-03-14T04:29:43.456Z,65.20
2018-03-14T04:30:43.448Z,61.20
2018-03-14T04:31:43.440Z,64.40
2018-03-14T04:32:43.431Z,65.90
2018-03-14T04:33:43.423Z,65.00
2018-03-14T04:34:43.416Z,61.40
2018-03-14T04:35:43.405Z,67.90
2018-03-14T04:36:43.395Z,69.40
2018-03-14T04:37:43.388Z,70.80
2018-03-14T04:38:43.380Z,66.60
2018-03-14T04:39:43.371Z,65.90
2018-03-14T04:40:43.362Z,70.40
2018-03-14T04:41:43.362Z,70.10
2018-03-14T04:42:43.347Z,71.40
2018-03-14T04:43:43.341Z,74.50
2018-03-14T04:44:43.333Z,67.00
2018-03-14T04:45:43.325Z,72.60
2018-03-14T04:46:43.320Z,69.00
2018-03-14T04:47:43.308Z,64.60
2018-03-14T04:48:43.299Z,68.40
2018-03-14T04:49:43.298Z,64.60
2018-03-14T04:50:43.284Z,68.60
2018-03-14T04:51:43.272Z,72.80
2018-03-14T04:52:43.264Z,73.00
2018-03-14T04:53:43.262Z,67.80
2018-03-14T04:54:43.248Z,69.50
2018-03-14T04:55:43.242Z,72.60
2018-03-14T04:56:43.232Z,69.30
2018-03-14T04:57:43.224Z,70.00
2018-03-14T04:58:43.216Z,71.60
2018-03-14T04:59:43.210Z,69.20
2018-03-14T05:00:43.201Z,69.20
2018-03-14T05:01:43.194Z,75.80
2018-03-14T05:02:43.186Z,70.00
2018-03-14T05:03:43.174Z,69.50
2018-03-14T05:04:43.165Z,71.20
2018-03-14T05:05:43.157Z,69.80
2018-03-14T05:06:43.150Z,67.10
2018-03-14T05:07:43.144Z,70.50
2018-03-14T05:08:43.136Z,65.20
2018-03-14T05:09:43.127Z,64.80
2018-03-14T05:10:43.126Z,66.00
2018-03-14T05:11:43.113Z,68.90
2018-03-14T05:12:43.102Z,63.80
2018-03-14T05:13:43.095Z,66.30
2018-03-14T05:14:43.087Z,69.00
2018-03-14T05:15:43.075Z,69.70
2018-03-14T05:16:43.067Z,71.40
2018-03-14T05:17:43.059Z,72.50
2018-03-14T05:18:43.049Z,73.10
2018-03-14T05:19:43.046Z,74.70
2018-03-14T05:20:43.033Z,80.00
2018-03-14T05:21:43.025Z,70.20
2018-03-14T05:22:43.018Z,72.60
2018-03-14T05:23:43.013Z,72.50
2018-03-14T05:24:43.004Z,72.60
2018-03-14T05:25:42.995Z,74.40
2018-03-14T05:26:43.007Z,73.20
2018-03-14T05:27:42.981Z,72.30
2018-03-14T05:28:42.970Z,72.40
2018-03-14T05:29:42.962Z,72.90
2018-03-14T05:30:42.955Z,73.60
2018-03-14T05:31:42.944Z,73.20
2018-03-14T05:32:42.934Z,73.30
2018-03-14T05:33:42.927Z,73.30
2018-03-14T05:34:42.918Z,72.40
2018-03-14T05:35:42.910Z,69.60
2018-03-14T05:36:42.902Z,76.10
2018-03-14T05:37:42.892Z,72.50
2018-03-14T05:38:42.885Z,76.40
2018-03-14T05:39:42.881Z,84.50
2018-03-14T05:40:42.871Z,77.50
2018-03-14T05:41:42.863Z,91.40
2018-03-14T05:42:42.855Z,95.10
2018-03-14T05:43:42.847Z,97.50
2018-03-14T05:44:42.837Z,95.40
2018-03-14T05:45:42.829Z,98.50
2018-03-14T05:46:42.821Z,104.50
2018-03-14T05:47:42.810Z,102.80
2018-03-14T05:48:42.805Z,99.90
2018-03-14T05:49:42.793Z,105.60
2018-03-14T05:50:42.784Z,103.90
2018-03-14T05:51:42.776Z,88.00
2018-03-14T05:52:42.768Z,96.50
2018-03-14T05:53:42.758Z,87.90
2018-03-14T05:54:42.751Z,82.40
2018-03-14T05:55:42.745Z,96.80
2018-03-14T05:56:42.740Z,93.40
2018-03-14T05:57:42.728Z,92.80
2018-03-14T05:58:42.719Z,97.90
2018-03-14T05:59:42.714Z,94.60
2018-03-14T06:00:42.703Z,88.90
2018-03-14T06:01:42.695Z,95.90
2018-03-14T06:02:42.685Z,98.70
2018-03-14T06:03:42.676Z,98.20
2018-03-14T06:04:42.667Z,103.90
2018-03-14T06:05:42.657Z,104.30
2018-03-14T06:06:42.648Z,105.70
2018-03-14T06:07:42.642Z,101.50
2018-03-14T06:08:42.633Z,113.50
2018-03-14T06:09:42.625Z,110.10
2018-03-14T06:10:42.617Z,102.40
2018-03-14T06:11:42.606Z,93.90
2018-03-14T06:12:42.596Z,103.10
2018-03-14T06:13:42.587Z,95.80
2018-03-14T06:14:42.580Z,91.90
2018-03-14T06:15:42.570Z,91.30
2018-03-14T06:16:42.615Z,82.00
2018-03-14T06:17:42.553Z,89.30
2018-03-14T06:18:42.544Z,81.50
2018-03-14T06:19:42.539Z,80.80
2018-03-14T06:20:42.535Z,76.90
2018-03-14T06:21:42.523Z,76.00
2018-03-14T06:22:42.516Z,70.40
2018-03-14T06:23:42.505Z,70.70
2018-03-14T06:24:42.497Z,70.10
2018-03-14T06:25:42.488Z,68.30
2018-03-14T06:26:42.480Z,65.00
2018-03-14T06:27:42.468Z,69.80
2018-03-14T06:28:42.462Z,69.60
2018-03-14T06:29:42.450Z,71.90
2018-03-14T06:30:42.442Z,69.00
2018-03-14T06:31:42.432Z,73.40
2018-03-14T06:32:42.429Z,69.40
2018-03-14T06:33:42.418Z,67.60
2018-03-14T06:34:42.409Z,65.50
2018-03-14T06:35:42.404Z,67.80
2018-03-14T06:36:42.393Z,66.60
2018-03-14T06:37:42.386Z,65.80
2018-03-14T06:38:42.377Z,63.80
2018-03-14T06:39:42.369Z,66.70
2018-03-14T06:40:42.359Z,68.00
2018-03-14T06:41:42.353Z,64.50
2018-03-14T06:42:42.343Z,68.90
2018-03-14T06:43:42.333Z,57.60
2018-03-14T06:44:42.323Z,60.80
2018-03-14T06:45:42.316Z,65.00
2018-03-14T06:46:42.308Z,59.10
2018-03-14T06:47:42.301Z,62.70
2018-03-14T06:48:42.292Z,62.30
2018-03-14T06:49:42.284Z,63.10
2018-03-14T06:50:42.276Z,60.70
2018-03-14T06:51:42.270Z,59.60
2018-03-14T06:52:42.262Z,57.90
2018-03-14T06:53:42.254Z,57.00
2018-03-14T06:54:42.246Z,61.30
2018-03-14T06:55:42.239Z,58.00
2018-03-14T06:56:42.231Z,61.90
2018-03-14T06:57:42.223Z,60.70
2018-03-14T06:58:42.214Z,57.60
2018-03-14T06:59:42.205Z,64.60
2018-03-14T07:00:42.198Z,62.80
2018-03-14T07:01:42.188Z,55.60
2018-03-14T07:02:42.180Z,52.00
2018-03-14T07:03:42.174Z,52.90
2018-03-14T07:04:42.166Z,50.40
2018-03-14T07:05:42.157Z,52.10
2018-03-14T07:06:42.151Z,50.00
2018-03-14T07:07:42.147Z,52.10
2018-03-14T07:08:42.141Z,47.80
2018-03-14T07:09:42.134Z,46.40
2018-03-14T07:10:42.127Z,45.10
2018-03-14T07:11:42.119Z,43.70
2018-03-14T07:12:42.112Z,44.00
2018-03-14T07:13:42.110Z,44.00
2018-03-14T07:14:42.102Z,43.90
2018-03-14T07:15:42.102Z,43.80
2018-03-14T07:16:42.093Z,44.20
2018-03-14T07:17:42.089Z,44.60
2018-03-14T07:18:42.084Z,44.20
2018-03-14T07:19:42.082Z,43.80
2018-03-14T07:20:42.076Z,41.40
2018-03-14T07:21:42.074Z,42.80
2018-03-14T07:22:42.071Z,44.30
2018-03-14T07:23:42.066Z,43.30
2018-03-14T07:24:42.063Z,45.60
2018-03-14T07:25:42.060Z,44.90
2018-03-14T07:26:42.060Z,43.60
2018-03-14T07:27:42.057Z,45.10
2018-03-14T07:28:42.055Z,43.40
2018-03-14T07:29:42.053Z,44.10
2018-03-14T07:30:42.052Z,43.70
2018-03-14T07:31:42.054Z,43.40
2018-03-14T07:32:42.054Z,43.70
2018-03-14T07:33:42.053Z,42.70
2018-03-14T07:34:42.054Z,43.70
2018-03-14T07:35:42.053Z,42.10
2018-03-14T07:36:42.052Z,41.50
2018-03-14T07:37:42.054Z,40.60
2018-03-14T07:38:42.056Z,42.30
2018-03-14T07:39:42.056Z,41.50
2018-03-14T07:40:42.055Z,41.80
2018-03-14T07:41:42.057Z,42.40
2018-03-14T07:42:42.056Z,42.10
2018-03-14T07:43:42.059Z,42.50
2018-03-14T07:44:42.110Z,41.80
2018-03-14T07:45:42.062Z,40.30
2018-03-14T07:46:42.064Z,40.90
2018-03-14T07:47:42.070Z,40.70
2018-03-14T07:48:42.071Z,38.90
2018-03-14T07:49:42.077Z,39.50
2018-03-14T07:50:42.077Z,38.80
2018-03-14T07:51:42.080Z,36.80
2018-03-14T07:52:42.141Z,36.80
2018-03-14T07:53:42.086Z,36.80
2018-03-14T07:54:42.092Z,37.20
2018-03-14T07:55:42.091Z,36.60
2018-03-14T07:56:42.094Z,36.30
2018-03-14T07:57:42.098Z,36.00
2018-03-14T07:58:42.104Z,34.30
2018-03-14T07:59:42.107Z,34.80
2018-03-14T08:00:42.111Z,33.90
2018-03-14T08:01:42.117Z,35.50
2018-03-14T08:02:42.120Z,32.80
2018-03-14T08:03:42.129Z,32.20
2018-03-14T08:04:42.134Z,34.60
2018-03-14T08:05:42.140Z,34.00
2018-03-14T08:06:42.148Z,34.00
2018-03-14T08:07:42.199Z,33.30
2018-03-14T08:08:42.154Z,35.80
2018-03-14T08:09:42.160Z,43.00
2018-03-14T08:10:42.164Z,45.10
2018-03-14T08:11:42.173Z,44.00
2018-03-14T08:12:42.170Z,44.00
2018-03-14T08:13:42.329Z,45.20
2018-03-14T08:14:42.179Z,45.90
2018-03-14T08:15:42.184Z,45.50
2018-03-14T08:16:42.187Z,43.90
2018-03-14T08:17:42.191Z,44.40
2018-03-14T08:18:42.196Z,46.60
2018-03-14T08:19:42.202Z,46.30
2018-03-14T08:20:42.206Z,46.70
2018-03-14T08:21:42.210Z,45.80
2018-03-14T08:22:42.212Z,45.80
2018-03-14T08:23:42.217Z,46.30
2018-03-14T08:24:42.220Z,45.90
2018-03-14T08:25:42.224Z,46.40
2018-03-14T08:26:42.225Z,46.70
2018-03-14T08:27:42.229Z,47.30
2018-03-14T08:28:42.228Z,47.10
2018-03-14T08:29:42.230Z,47.70
2018-03-14T08:30:42.232Z,47.40
2018-03-14T08:31:42.232Z,46.00
2018-03-14T08:32:42.236Z,46.70
2018-03-14T08:33:42.236Z,45.20
2018-03-14T08:34:42.239Z,47.60
2018-03-14T08:35:42.245Z,47.20
2018-03-14T08:36:42.244Z,47.90
2018-03-14T08:37:42.246Z,49.10
2018-03-14T08:38:42.248Z,49.40
2018-03-14T08:39:42.251Z,50.60
2018-03-14T08:40:42.251Z,49.50
2018-03-14T08:41:42.253Z,50.40
2018-03-14T08:42:42.252Z,52.80
2018-03-14T08:43:42.251Z,52.10
2018-03-14T08:44:42.251Z,52.00
2018-03-14T08:45:42.252Z,50.50
2018-03-14T08:46:42.253Z,51.60
2018-03-14T08:47:42.253Z,51.90
2018-03-14T08:48:42.252Z,50.40
2018-03-14T08:49:42.253Z,48.60
2018-03-14T08:50:42.253Z,48.40
2018-03-14T08:51:42.258Z,47.40
2018-03-14T08:52:42.258Z,47.50
2018-03-14T08:53:42.258Z,48.60
2018-03-14T08:54:42.261Z,48.40
2018-03-14T08:55:42.311Z,45.70
2018-03-14T08:56:42.266Z,46.70
2018-03-14T08:57:42.265Z,43.80
2018-03-14T08:58:42.268Z,41.00
2018-03-14T08:59:42.269Z,41.90
2018-03-14T09:00:42.272Z,39.30
2018-03-14T09:01:42.275Z,38.00
2018-03-14T09:02:42.280Z,36.60
2018-03-14T09:03:42.284Z,35.10
2018-03-14T09:04:42.293Z,34.50
2018-03-14T09:05:42.295Z,34.20
2018-03-14T09:06:42.301Z,32.10
2018-03-14T09:07:42.313Z,32.10
2018-03-14T09:08:42.316Z,31.60
2018-03-14T09:09:42.324Z,31.90
2018-03-14T09:10:42.332Z,31.10
2018-03-14T09:11:42.340Z,32.70
2018-03-14T09:12:42.347Z,32.60
2018-03-14T09:13:42.356Z,32.80
2018-03-14T09:14:42.365Z,31.90
2018-03-14T09:15:42.372Z,33.10
2018-03-14T09:16:42.380Z,34.00
2018-03-14T09:17:42.391Z,34.30
2018-03-14T09:18:42.399Z,34.20
2018-03-14T09:19:42.413Z,35.50
2018-03-14T09:20:42.423Z,34.30
2018-03-14T09:21:42.433Z,34.80
2018-03-14T09:22:42.443Z,35.50
2018-03-14T09:23:42.451Z,35.10
2018-03-14T09:24:42.459Z,36.60
2018-03-14T09:25:42.470Z,36.10
2018-03-14T09:26:42.480Z,38.90
2018-03-14T09:27:42.489Z,38.80
2018-03-14T09:28:42.498Z,39.50
2018-03-14T09:29:42.510Z,39.30
2018-03-14T09:30:42.519Z,37.80
2018-03-14T09:31:42.543Z,38.10
2018-03-14T09:32:42.540Z,35.80
2018-03-14T09:33:42.549Z,34.10
2018-03-14T09:34:42.561Z,33.10
2018-03-14T09:35:42.574Z,30.80
2018-03-14T09:36:42.580Z,28.90
2018-03-14T09:37:42.590Z,28.50
2018-03-14T09:38:42.604Z,26.50
2018-03-14T09:39:42.612Z,26.90
2018-03-14T09:40:42.621Z,24.90
2018-03-14T09:41:42.632Z,23.50
2018-03-14T09:42:42.643Z,21.70
2018-03-14T09:43:42.657Z,21.80
2018-03-14T09:44:42.667Z,20.90
2018-03-14T09:45:42.680Z,22.20
2018-03-14T09:46:42.696Z,21.30
2018-03-14T09:47:42.710Z,21.30
2018-03-14T09:48:42.722Z,20.20
2018-03-14T09:49:42.735Z,19.50
2018-03-14T09:50:42.749Z,19.90
2018-03-14T09:51:42.765Z,18.90
2018-03-14T09:52:42.776Z,18.70
2018-03-14T09:53:42.794Z,18.10
2018-03-14T09:54:42.805Z,18.30
2018-03-14T09:55:42.817Z,18.50
2018-03-14T09:56:42.831Z,18.70
2018-03-14T09:57:42.848Z,17.60
2018-03-14T09:58:42.865Z,18.70
2018-03-14T09:59:42.873Z,18.30
2018-03-14T10:00:42.913Z,17.80
2018-03-14T10:01:42.902Z,16.80
2018-03-14T10:02:42.920Z,17.80
2018-03-14T10:03:42.936Z,17.80
2018-03-14T10:04:42.949Z,17.30
2018-03-14T10:05:42.963Z,17.70
2018-03-14T10:06:42.977Z,20.00
2018-03-14T10:07:42.992Z,22.20
2018-03-14T10:08:43.005Z,23.90
2018-03-14T10:09:43.020Z,25.70
2018-03-14T10:10:43.034Z,25.50
2018-03-14T10:11:43.043Z,25.90
2018-03-14T10:12:43.056Z,25.00
2018-03-14T10:13:43.068Z,24.30
2018-03-14T10:14:43.080Z,24.20
2018-03-14T10:15:43.093Z,25.80
2018-03-14T10:16:43.104Z,24.50
2018-03-14T10:17:43.116Z,23.70
2018-03-14T10:18:43.131Z,22.80
2018-03-14T10:19:43.142Z,24.60
2018-03-14T10:20:43.152Z,26.00
2018-03-14T10:21:43.168Z,25.50
2018-03-14T10:22:43.174Z,23.30
2018-03-14T10:23:43.182Z,20.10
2018-03-14T10:24:43.190Z,20.30
2018-03-14T10:25:43.251Z,20.60
2018-03-14T10:26:43.213Z,19.10
2018-03-14T10:27:43.228Z,19.30
2018-03-14T10:28:43.237Z,18.10
2018-03-14T10:29:43.248Z,18.30
2018-03-14T10:30:43.260Z,16.40
2018-03-14T10:31:43.322Z,16.00
2018-03-14T10:32:43.284Z,16.10
2018-03-14T10:33:43.294Z,15.40
2018-03-14T10:34:43.308Z,15.60
2018-03-14T10:35:43.317Z,15.50
2018-03-14T10:36:43.331Z,16.60
2018-03-14T10:37:43.341Z,16.10
2018-03-14T10:38:43.353Z,16.80
2018-03-14T10:39:43.366Z,17.10
2018-03-14T10:40:43.377Z,17.40
2018-03-14T10:41:43.392Z,18.20
2018-03-14T10:42:43.405Z,18.40
2018-03-14T10:43:43.421Z,18.50
2018-03-14T10:44:43.434Z,19.20
2018-03-14T10:45:43.447Z,19.70
2018-03-14T10:46:43.461Z,19.60
2018-03-14T10:47:43.475Z,19.10
2018-03-14T10:48:43.486Z,18.50
2018-03-14T10:49:43.501Z,18.50
2018-03-14T10:50:43.513Z,18.50
2018-03-14T10:51:43.526Z,17.50
2018-03-14T10:52:43.538Z,17.00
2018-03-14T10:53:43.552Z,17.60
2018-03-14T10:54:43.567Z,17.20
2018-03-14T10:55:43.581Z,16.60
2018-03-14T10:56:43.593Z,17.30
2018-03-14T10:57:43.608Z,16.00
2018-03-14T10:58:43.622Z,16.90
2018-03-14T10:59:43.638Z,17.30
2018-03-14T11:00:43.651Z,17.50
2018-03-14T11:01:43.666Z,17.10
2018-03-14T11:02:43.695Z,17.80
2018-03-14T11:03:43.694Z,16.80
2018-03-14T11:04:43.707Z,17.30
2018-03-14T11:05:43.720Z,17.80
2018-03-14T11:06:43.735Z,17.10
2018-03-14T11:07:43.759Z,17.10
2018-03-14T11:08:43.760Z,17.20
2018-03-14T11:09:43.774Z,17.90
2018-03-14T11:10:43.788Z,17.10
2018-03-14T11:11:43.801Z,17.50
2018-03-14T11:12:43.813Z,17.50
2018-03-14T11:13:43.828Z,18.40
2018-03-14T11:14:43.841Z,18.30
2018-03-14T11:15:43.859Z,17.40
2018-03-14T11:16:43.872Z,18.50
2018-03-14T11:17:43.890Z,18.40
2018-03-14T11:18:43.899Z,19.00
2018-03-14T11:19:43.913Z,19.10
2018-03-14T11:20:43.924Z,19.70
2018-03-14T11:21:43.987Z,20.30
2018-03-14T11:22:43.953Z,20.50
2018-03-14T11:23:43.963Z,21.40
2018-03-14T11:24:43.975Z,20.70
2018-03-14T11:25:43.989Z,21.80
2018-03-14T11:26:44.002Z,21.60
2018-03-14T11:27:44.018Z,22.00
2018-03-14T11:28:44.030Z,21.50
2018-03-14T11:29:44.043Z,20.60
2018-03-14T11:30:44.062Z,18.90
2018-03-14T11:31:44.065Z,18.50
2018-03-14T11:32:44.076Z,18.80
2018-03-14T11:33:44.088Z,19.70
2018-03-14T11:34:44.100Z,19.80
2018-03-14T11:35:44.113Z,19.30
2018-03-14T11:36:44.125Z,19.50
2018-03-14T11:37:44.135Z,20.90
2018-03-14T11:38:44.147Z,21.80
2018-03-14T11:39:44.161Z,21.20
2018-03-14T11:40:44.174Z,21.00
2018-03-14T11:41:44.180Z,21.30
2018-03-14T11:42:44.190Z,20.90
2018-03-14T11:43:44.200Z,21.10
2018-03-14T11:44:44.214Z,20.90
2018-03-14T11:45:44.217Z,21.50
2018-03-14T11:46:44.226Z,21.20
2018-03-14T11:47:44.231Z,20.00
2018-03-14T11:48:44.238Z,21.60
2018-03-14T11:49:44.245Z,21.60
2018-03-14T11:50:44.251Z,22.50
2018-03-14T11:51:44.259Z,21.70
2018-03-14T11:52:44.264Z,22.10
2018-03-14T11:53:44.271Z,22.20
2018-03-14T11:54:44.277Z,22.20
2018-03-14T11:55:44.285Z,21.90
2018-03-14T11:56:44.290Z,20.90
2018-03-14T11:57:44.297Z,21.60
2018-03-14T11:58:44.299Z,22.40
2018-03-14T11:59:44.305Z,21.50
2018-03-14T12:00:44.308Z,21.80
2018-03-14T12:01:44.314Z,22.20
2018-03-14T12:02:44.317Z,21.90
2018-03-14T12:03:44.318Z,21.70
2018-03-14T12:04:44.321Z,21.90
2018-03-14T12:05:44.325Z,21.30
2018-03-14T12:06:44.328Z,22.20
2018-03-14T12:07:44.334Z,21.40
2018-03-14T12:08:44.334Z,21.50
2018-03-14T12:09:44.338Z,21.10
2018-03-14T12:10:44.340Z,20.50
2018-03-14T12:11:44.345Z,20.60
2018-03-14T12:12:44.350Z,20.30
2018-03-14T12:13:44.351Z,21.10
2018-03-14T12:14:44.353Z,21.40
2018-03-14T12:15:44.358Z,21.10
2018-03-14T12:16:44.356Z,21.30
2018-03-14T12:17:44.358Z,21.00
2018-03-14T12:18:44.359Z,21.30
2018-03-14T12:19:44.363Z,22.20
2018-03-14T12:20:44.362Z,22.80
2018-03-14T12:21:44.361Z,23.00
2018-03-14T12:22:44.361Z,22.50
2018-03-14T12:23:44.363Z,22.90
2018-03-14T12:24:44.363Z,23.10
2018-03-14T12:25:44.365Z,23.70
2018-03-14T12:26:44.364Z,23.80
2018-03-14T12:27:44.369Z,24.00
2018-03-14T12:28:44.366Z,22.60
2018-03-14T12:29:44.370Z,23.70
2018-03-14T12:30:44.373Z,22.80
2018-03-14T12:31:44.365Z,22.30
2018-03-14T12:32:44.364Z,21.40
2018-03-14T12:33:44.364Z,21.30
2018-03-14T12:34:44.421Z,21.60
2018-03-14T12:35:44.365Z,23.10
2018-03-14T12:36:44.367Z,22.50
2018-03-14T12:37:44.363Z,20.60
2018-03-14T12:38:44.363Z,22.80
2018-03-14T12:39:44.363Z,20.70
2018-03-14T12:40:44.363Z,21.20
2018-03-14T12:41:44.359Z,21.70
2018-03-14T12:42:44.360Z,23.20
2018-03-14T12:43:44.392Z,22.20
2018-03-14T12:44:44.355Z,22.00
2018-03-14T12:45:44.353Z,22.30
2018-03-14T12:46:44.352Z,22.90
2018-03-14T12:47:44.353Z,20.70
2018-03-14T12:48:44.349Z,20.90
2018-03-14T12:49:44.348Z,20.40
2018-03-14T12:50:44.348Z,21.30
2018-03-14T12:51:44.348Z,19.70
2018-03-14T12:52:44.347Z,22.00